Decoded Metar for GCLP (LAS PALMAS in SPAIN) (IATA:LPA) | Meteo·Mobile Aviation Weather
aviador You're here:

GCLP Decoded Metar

LAS PALMAS in SPAIN
Report Time2019-08-21 17:30:00
UTC Time2019-08-21 17:47:19
Flight Rules vfr VFR
Wind010° at 29 kt
W.Decomp.*RWY 03: 28.0 kt HW 7.5 kt LCW
Visibility9999 m
Phenomena:N/A
Clouds:Few 025 Hf
Expected CloudBase > 3,200 ft AGL from Temp-Dew spread
CeilingNone
Temp25°C (ISA +10)
Dew Point17°C (61% RH)
AAT16.9°C
QNH1014 hPa
Density Alt1,483 ft
Elevation82 ft
Report Wrong Elevation
Raw Report
GCLP 211730Z 01029KT 9999 FEW025 25/17 Q1014 NOSIG=

Extra information for GCLP:More info

Metar Taf Metar & Taf Last 4 Metars F.Rules Stats Wind Profile Meteogram Temp Stats Airport Information Weather charts Add Link Nearby VenuesMetar ALERT Operation Metar Decoded Social comments